sensor_id;sensor_type;location;lat;lon;timestamp;temperature;humidity
19254;DHT22;9761;50.926;5.330;2022-10-26T00:06:04;13.60;99.90
19254;DHT22;9761;50.926;5.330;2022-10-26T00:08:32;13.50;99.90
19254;DHT22;9761;50.926;5.330;2022-10-26T00:11:00;13.50;99.90
19254;DHT22;9761;50.926;5.330;2022-10-26T00:13:40;13.50;99.90
19254;DHT22;9761;50.926;5.330;2022-10-26T00:16:09;13.50;99.90
19254;DHT22;9761;50.926;5.330;2022-10-26T00:18:37;13.50;99.90
19254;DHT22;9761;50.926;5.330;2022-10-26T00:21:08;13.30;99.90
19254;DHT22;9761;50.926;5.330;2022-10-26T00:23:36;13.40;99.90
19254;DHT22;9761;50.926;5.330;2022-10-26T00:26:13;13.50;99.90
19254;DHT22;9761;50.926;5.330;2022-10-26T00:28:56;13.60;99.90
19254;DHT22;9761;50.926;5.330;2022-10-26T00:31:24;13.50;99.90
19254;DHT22;9761;50.926;5.330;2022-10-26T00:33:52;13.60;99.90
19254;DHT22;9761;50.926;5.330;2022-10-26T00:36:22;13.60;99.90
19254;DHT22;9761;50.926;5.330;2022-10-26T00:38:51;13.60;99.90
19254;DHT22;9761;50.926;5.330;2022-10-26T00:41:21;13.50;99.90
19254;DHT22;9761;50.926;5.330;2022-10-26T00:43:49;13.50;99.90
19254;DHT22;9761;50.926;5.330;2022-10-26T00:46:19;13.60;99.90
19254;DHT22;9761;50.926;5.330;2022-10-26T00:48:51;13.60;99.90
19254;DHT22;9761;50.926;5.330;2022-10-26T00:51:24;13.50;99.90
19254;DHT22;9761;50.926;5.330;2022-10-26T00:53:53;13.50;99.90
19254;DHT22;9761;50.926;5.330;2022-10-26T00:56:21;13.60;99.90
19254;DHT22;9761;50.926;5.330;2022-10-26T00:58:49;13.70;99.90
19254;DHT22;9761;50.926;5.330;2022-10-26T01:01:18;13.70;99.90
19254;DHT22;9761;50.926;5.330;2022-10-26T01:03:46;13.70;99.90
19254;DHT22;9761;50.926;5.330;2022-10-26T01:06:14;13.70;99.90
19254;DHT22;9761;50.926;5.330;2022-10-26T01:08:44;13.70;99.90
19254;DHT22;9761;50.926;5.330;2022-10-26T01:11:11;13.70;99.90
19254;DHT22;9761;50.926;5.330;2022-10-26T01:13:39;13.80;99.90
19254;DHT22;9761;50.926;5.330;2022-10-26T01:16:19;13.80;99.90
19254;DHT22;9761;50.926;5.330;2022-10-26T01:18:56;13.80;99.90
19254;DHT22;9761;50.926;5.330;2022-10-26T01:21:49;13.80;99.90
19254;DHT22;9761;50.926;5.330;2022-10-26T01:27:32;13.90;99.90
19254;DHT22;9761;50.926;5.330;2022-10-26T01:30:22;13.90;99.90
19254;DHT22;9761;50.926;5.330;2022-10-26T01:33:11;13.90;99.90
19254;DHT22;9761;50.926;5.330;2022-10-26T01:35:45;14.00;99.90
19254;DHT22;9761;50.926;5.330;2022-10-26T01:38:21;13.90;99.90
19254;DHT22;9761;50.926;5.330;2022-10-26T01:40:55;13.90;99.90
19254;DHT22;9761;50.926;5.330;2022-10-26T01:43:26;13.80;99.90
19254;DHT22;9761;50.926;5.330;2022-10-26T01:45:56;13.80;99.90
19254;DHT22;9761;50.926;5.330;2022-10-26T01:48:28;13.90;99.90
19254;DHT22;9761;50.926;5.330;2022-10-26T01:50:57;14.00;99.90
19254;DHT22;9761;50.926;5.330;2022-10-26T01:53:25;14.00;99.90
19254;DHT22;9761;50.926;5.330;2022-10-26T01:55:54;13.90;99.90
19254;DHT22;9761;50.926;5.330;2022-10-26T02:04:58;14.00;99.90
19254;DHT22;9761;50.926;5.330;2022-10-26T02:07:36;14.00;99.90
19254;DHT22;9761;50.926;5.330;2022-10-26T02:10:16;14.00;99.90
19254;DHT22;9761;50.926;5.330;2022-10-26T02:12:54;14.10;99.90
19254;DHT22;9761;50.926;5.330;2022-10-26T02:15:31;14.10;99.90
19254;DHT22;9761;50.926;5.330;2022-10-26T02:18:04;14.10;99.90
19254;DHT22;9761;50.926;5.330;2022-10-26T02:20:43;14.10;99.90
19254;DHT22;9761;50.926;5.330;2022-10-26T02:23:12;14.10;99.90
19254;DHT22;9761;50.926;5.330;2022-10-26T02:25:46;13.90;99.90
19254;DHT22;9761;50.926;5.330;2022-10-26T02:28:21;14.10;99.90
19254;DHT22;9761;50.926;5.330;2022-10-26T02:30:51;14.20;99.90
19254;DHT22;9761;50.926;5.330;2022-10-26T02:33:24;14.20;99.90
19254;DHT22;9761;50.926;5.330;2022-10-26T02:35:55;14.20;99.90
19254;DHT22;9761;50.926;5.330;2022-10-26T02:38:25;14.20;99.90
19254;DHT22;9761;50.926;5.330;2022-10-26T02:40:56;14.20;99.90
19254;DHT22;9761;50.926;5.330;2022-10-26T02:43:24;14.30;99.90
19254;DHT22;9761;50.926;5.330;2022-10-26T02:45:56;14.20;99.90
19254;DHT22;9761;50.926;5.330;2022-10-26T02:48:28;14.20;99.90
19254;DHT22;9761;50.926;5.330;2022-10-26T02:51:01;14.10;99.90
19254;DHT22;9761;50.926;5.330;2022-10-26T02:53:36;14.30;99.90
19254;DHT22;9761;50.926;5.330;2022-10-26T02:56:09;14.40;99.90
19254;DHT22;9761;50.926;5.330;2022-10-26T02:58:40;14.30;99.90
19254;DHT22;9761;50.926;5.330;2022-10-26T03:01:08;14.30;99.90
19254;DHT22;9761;50.926;5.330;2022-10-26T03:03:36;14.20;99.90
19254;DHT22;9761;50.926;5.330;2022-10-26T03:06:04;14.30;99.90
19254;DHT22;9761;50.926;5.330;2022-10-26T03:08:33;14.30;99.90
19254;DHT22;9761;50.926;5.330;2022-10-26T03:11:03;14.30;99.90
19254;DHT22;9761;50.926;5.330;2022-10-26T03:13:30;14.30;99.90
19254;DHT22;9761;50.926;5.330;2022-10-26T03:15:57;14.30;99.90
19254;DHT22;9761;50.926;5.330;2022-10-26T03:18:25;14.30;99.90
19254;DHT22;9761;50.926;5.330;2022-10-26T03:20:54;14.30;99.90
19254;DHT22;9761;50.926;5.330;2022-10-26T03:23:23;14.30;99.90
19254;DHT22;9761;50.926;5.330;2022-10-26T03:25:54;14.20;99.90
19254;DHT22;9761;50.926;5.330;2022-10-26T03:28:24;14.20;99.90
19254;DHT22;9761;50.926;5.330;2022-10-26T03:30:54;14.00;99.90
19254;DHT22;9761;50.926;5.330;2022-10-26T03:33:21;14.10;99.90
19254;DHT22;9761;50.926;5.330;2022-10-26T03:35:54;14.10;99.90
19254;DHT22;9761;50.926;5.330;2022-10-26T03:38:23;14.10;99.90
19254;DHT22;9761;50.926;5.330;2022-10-26T03:40:50;14.30;99.90
19254;DHT22;9761;50.926;5.330;2022-10-26T03:43:19;14.30;99.90
19254;DHT22;9761;50.926;5.330;2022-10-26T03:45:46;14.40;99.90
19254;DHT22;9761;50.926;5.330;2022-10-26T03:48:13;14.50;99.90
19254;DHT22;9761;50.926;5.330;2022-10-26T03:50:43;14.50;99.90
19254;DHT22;9761;50.926;5.330;2022-10-26T03:53:12;14.60;99.90
19254;DHT22;9761;50.926;5.330;2022-10-26T03:55:44;14.40;99.90
19254;DHT22;9761;50.926;5.330;2022-10-26T03:58:11;14.30;99.90
19254;DHT22;9761;50.926;5.330;2022-10-26T04:00:38;14.40;99.90
19254;DHT22;9761;50.926;5.330;2022-10-26T04:03:05;14.50;99.90
19254;DHT22;9761;50.926;5.330;2022-10-26T04:05:32;14.40;99.90
19254;DHT22;9761;50.926;5.330;2022-10-26T04:08:00;14.40;99.90
19254;DHT22;9761;50.926;5.330;2022-10-26T04:10:29;14.50;99.90
19254;DHT22;9761;50.926;5.330;2022-10-26T04:12:58;14.50;99.90
19254;DHT22;9761;50.926;5.330;2022-10-26T04:15:28;14.50;99.90
19254;DHT22;9761;50.926;5.330;2022-10-26T04:17:56;14.50;99.90
19254;DHT22;9761;50.926;5.330;2022-10-26T04:20:23;14.60;99.90
19254;DHT22;9761;50.926;5.330;2022-10-26T04:22:56;14.60;99.90
19254;DHT22;9761;50.926;5.330;2022-10-26T04:25:28;14.70;99.90
19254;DHT22;9761;50.926;5.330;2022-10-26T04:27:55;14.60;99.90
19254;DHT22;9761;50.926;5.330;2022-10-26T04:30:27;14.40;99.90
19254;DHT22;9761;50.926;5.330;2022-10-26T04:32:54;14.50;99.90
19254;DHT22;9761;50.926;5.330;2022-10-26T04:35:20;14.60;99.90
19254;DHT22;9761;50.926;5.330;2022-10-26T04:37:48;14.70;99.90
19254;DHT22;9761;50.926;5.330;2022-10-26T04:40:15;14.70;99.90
19254;DHT22;9761;50.926;5.330;2022-10-26T04:42:43;14.70;99.90
19254;DHT22;9761;50.926;5.330;2022-10-26T04:45:14;14.80;99.90
19254;DHT22;9761;50.926;5.330;2022-10-26T04:47:43;14.80;99.90
19254;DHT22;9761;50.926;5.330;2022-10-26T04:50:11;14.90;99.90
19254;DHT22;9761;50.926;5.330;2022-10-26T04:52:39;15.00;99.90
19254;DHT22;9761;50.926;5.330;2022-10-26T04:55:07;15.10;99.90
19254;DHT22;9761;50.926;5.330;2022-10-26T05:00:23;15.10;99.90
19254;DHT22;9761;50.926;5.330;2022-10-26T05:02:57;15.20;99.90
19254;DHT22;9761;50.926;5.330;2022-10-26T05:05:34;15.30;99.90
19254;DHT22;9761;50.926;5.330;2022-10-26T05:08:03;15.40;99.90
19254;DHT22;9761;50.926;5.330;2022-10-26T05:10:35;15.40;99.90
19254;DHT22;9761;50.926;5.330;2022-10-26T05:13:03;15.50;99.90
19254;DHT22;9761;50.926;5.330;2022-10-26T05:15:32;15.60;99.90
19254;DHT22;9761;50.926;5.330;2022-10-26T05:18:01;15.60;99.90
19254;DHT22;9761;50.926;5.330;2022-10-26T05:20:32;15.50;99.90
19254;DHT22;9761;50.926;5.330;2022-10-26T05:23:00;15.50;99.90
19254;DHT22;9761;50.926;5.330;2022-10-26T05:25:29;15.50;99.90
19254;DHT22;9761;50.926;5.330;2022-10-26T05:27:58;15.50;99.90
19254;DHT22;9761;50.926;5.330;2022-10-26T05:30:25;15.50;99.90
19254;DHT22;9761;50.926;5.330;2022-10-26T05:32:53;15.50;99.90
19254;DHT22;9761;50.926;5.330;2022-10-26T05:35:22;15.50;99.90
19254;DHT22;9761;50.926;5.330;2022-10-26T05:37:50;15.60;99.90
19254;DHT22;9761;50.926;5.330;2022-10-26T05:40:17;15.60;99.90
19254;DHT22;9761;50.926;5.330;2022-10-26T05:42:45;15.60;99.90
19254;DHT22;9761;50.926;5.330;2022-10-26T05:45:12;15.60;99.90
19254;DHT22;9761;50.926;5.330;2022-10-26T05:47:39;15.60;99.90
19254;DHT22;9761;50.926;5.330;2022-10-26T05:50:09;15.60;99.90
19254;DHT22;9761;50.926;5.330;2022-10-26T05:52:42;15.60;99.90
19254;DHT22;9761;50.926;5.330;2022-10-26T05:55:12;15.60;99.90
19254;DHT22;9761;50.926;5.330;2022-10-26T05:57:41;15.60;99.90
19254;DHT22;9761;50.926;5.330;2022-10-26T06:00:14;15.50;99.90
19254;DHT22;9761;50.926;5.330;2022-10-26T06:02:52;15.50;99.90
19254;DHT22;9761;50.926;5.330;2022-10-26T06:05:24;15.50;99.90
19254;DHT22;9761;50.926;5.330;2022-10-26T06:07:54;15.50;99.90
19254;DHT22;9761;50.926;5.330;2022-10-26T06:10:24;15.50;99.90
19254;DHT22;9761;50.926;5.330;2022-10-26T06:12:52;15.50;99.90
19254;DHT22;9761;50.926;5.330;2022-10-26T06:15:20;15.50;99.90
19254;DHT22;9761;50.926;5.330;2022-10-26T06:17:56;15.50;99.90
19254;DHT22;9761;50.926;5.330;2022-10-26T06:20:34;15.50;99.90
19254;DHT22;9761;50.926;5.330;2022-10-26T06:23:17;15.40;99.90
19254;DHT22;9761;50.926;5.330;2022-10-26T06:25:53;15.50;99.90
19254;DHT22;9761;50.926;5.330;2022-10-26T06:28:32;15.60;99.90
19254;DHT22;9761;50.926;5.330;2022-10-26T06:31:01;15.50;99.90
19254;DHT22;9761;50.926;5.330;2022-10-26T06:33:28;15.60;99.90
19254;DHT22;9761;50.926;5.330;2022-10-26T06:36:07;15.70;99.90
19254;DHT22;9761;50.926;5.330;2022-10-26T06:38:42;15.80;99.90
19254;DHT22;9761;50.926;5.330;2022-10-26T06:41:15;15.80;99.90
19254;DHT22;9761;50.926;5.330;2022-10-26T06:43:47;15.80;99.90
19254;DHT22;9761;50.926;5.330;2022-10-26T06:46:24;15.70;99.90
19254;DHT22;9761;50.926;5.330;2022-10-26T06:49:01;15.70;99.90
19254;DHT22;9761;50.926;5.330;2022-10-26T06:51:35;15.70;99.90
19254;DHT22;9761;50.926;5.330;2022-10-26T06:54:13;15.70;99.90
19254;DHT22;9761;50.926;5.330;2022-10-26T06:56:42;15.70;99.90
19254;DHT22;9761;50.926;5.330;2022-10-26T06:59:15;15.50;99.90
19254;DHT22;9761;50.926;5.330;2022-10-26T07:01:44;15.40;99.90
19254;DHT22;9761;50.926;5.330;2022-10-26T07:04:11;15.20;99.90
19254;DHT22;9761;50.926;5.330;2022-10-26T07:06:38;15.20;99.90
19254;DHT22;9761;50.926;5.330;2022-10-26T07:09:06;15.20;99.90
19254;DHT22;9761;50.926;5.330;2022-10-26T07:11:34;15.40;99.90
19254;DHT22;9761;50.926;5.330;2022-10-26T07:16:38;15.40;99.90
19254;DHT22;9761;50.926;5.330;2022-10-26T07:19:06;15.30;99.90
19254;DHT22;9761;50.926;5.330;2022-10-26T07:21:33;15.30;99.90
19254;DHT22;9761;50.926;5.330;2022-10-26T07:24:02;15.30;99.90
19254;DHT22;9761;50.926;5.330;2022-10-26T07:26:30;15.40;99.90
19254;DHT22;9761;50.926;5.330;2022-10-26T07:28:57;15.30;99.90
19254;DHT22;9761;50.926;5.330;2022-10-26T07:31:26;15.20;99.90
19254;DHT22;9761;50.926;5.330;2022-10-26T07:33:54;15.20;99.90
19254;DHT22;9761;50.926;5.330;2022-10-26T07:36:25;15.20;99.90
19254;DHT22;9761;50.926;5.330;2022-10-26T07:38:54;15.20;99.90
19254;DHT22;9761;50.926;5.330;2022-10-26T07:41:21;15.30;99.90
19254;DHT22;9761;50.926;5.330;2022-10-26T07:43:49;15.30;99.90
19254;DHT22;9761;50.926;5.330;2022-10-26T07:46:16;15.30;99.90
19254;DHT22;9761;50.926;5.330;2022-10-26T07:48:43;15.30;99.90
19254;DHT22;9761;50.926;5.330;2022-10-26T07:51:10;15.30;99.90
19254;DHT22;9761;50.926;5.330;2022-10-26T07:53:37;15.40;99.90
19254;DHT22;9761;50.926;5.330;2022-10-26T07:56:06;15.40;99.90
19254;DHT22;9761;50.926;5.330;2022-10-26T07:58:33;15.40;99.90
19254;DHT22;9761;50.926;5.330;2022-10-26T08:01:07;15.50;99.90
19254;DHT22;9761;50.926;5.330;2022-10-26T08:03:34;15.50;99.90
19254;DHT22;9761;50.926;5.330;2022-10-26T08:06:01;15.60;99.90
19254;DHT22;9761;50.926;5.330;2022-10-26T08:08:29;15.60;99.90
19254;DHT22;9761;50.926;5.330;2022-10-26T08:10:57;15.70;99.90
19254;DHT22;9761;50.926;5.330;2022-10-26T08:13:26;15.80;99.90
19254;DHT22;9761;50.926;5.330;2022-10-26T08:15:56;15.80;99.90
19254;DHT22;9761;50.926;5.330;2022-10-26T08:18:25;15.80;99.90
19254;DHT22;9761;50.926;5.330;2022-10-26T08:20:53;15.90;99.90
19254;DHT22;9761;50.926;5.330;2022-10-26T08:23:23;16.00;99.90
19254;DHT22;9761;50.926;5.330;2022-10-26T08:25:51;16.10;99.90
19254;DHT22;9761;50.926;5.330;2022-10-26T08:28:17;16.20;99.90
19254;DHT22;9761;50.926;5.330;2022-10-26T08:30:44;16.20;99.90
19254;DHT22;9761;50.926;5.330;2022-10-26T08:33:12;16.30;99.90
19254;DHT22;9761;50.926;5.330;2022-10-26T08:35:40;16.50;99.90
19254;DHT22;9761;50.926;5.330;2022-10-26T08:38:07;16.60;99.90
19254;DHT22;9761;50.926;5.330;2022-10-26T08:40:37;16.60;99.90
19254;DHT22;9761;50.926;5.330;2022-10-26T08:43:12;16.70;99.90
19254;DHT22;9761;50.926;5.330;2022-10-26T08:45:45;16.70;99.90
19254;DHT22;9761;50.926;5.330;2022-10-26T08:48:24;16.80;99.90
19254;DHT22;9761;50.926;5.330;2022-10-26T08:51:00;16.90;99.90
19254;DHT22;9761;50.926;5.330;2022-10-26T08:53:35;16.90;99.90
19254;DHT22;9761;50.926;5.330;2022-10-26T08:56:10;16.90;99.90
19254;DHT22;9761;50.926;5.330;2022-10-26T08:58:48;17.00;99.90
19254;DHT22;9761;50.926;5.330;2022-10-26T09:01:17;17.00;99.90
19254;DHT22;9761;50.926;5.330;2022-10-26T09:03:44;17.00;99.90
19254;DHT22;9761;50.926;5.330;2022-10-26T09:06:31;17.20;99.90
19254;DHT22;9761;50.926;5.330;2022-10-26T09:09:03;17.20;99.90
19254;DHT22;9761;50.926;5.330;2022-10-26T09:11:48;17.30;99.90
19254;DHT22;9761;50.926;5.330;2022-10-26T09:14:20;17.30;99.90
19254;DHT22;9761;50.926;5.330;2022-10-26T09:16:58;17.40;99.90
19254;DHT22;9761;50.926;5.330;2022-10-26T09:19:57;17.50;99.90
19254;DHT22;9761;50.926;5.330;2022-10-26T09:22:32;17.60;99.90
19254;DHT22;9761;50.926;5.330;2022-10-26T09:25:12;17.70;99.90
19254;DHT22;9761;50.926;5.330;2022-10-26T09:27:46;17.70;99.90
19254;DHT22;9761;50.926;5.330;2022-10-26T09:30:17;17.80;99.90
19254;DHT22;9761;50.926;5.330;2022-10-26T09:32:49;17.80;99.90
19254;DHT22;9761;50.926;5.330;2022-10-26T09:35:22;18.00;99.90
19254;DHT22;9761;50.926;5.330;2022-10-26T09:37:54;18.00;99.90
19254;DHT22;9761;50.926;5.330;2022-10-26T09:40:28;18.10;99.90
19254;DHT22;9761;50.926;5.330;2022-10-26T09:43:01;18.20;99.90
19254;DHT22;9761;50.926;5.330;2022-10-26T09:45:33;18.20;99.90
19254;DHT22;9761;50.926;5.330;2022-10-26T09:48:09;18.30;99.90
19254;DHT22;9761;50.926;5.330;2022-10-26T09:50:39;18.30;99.90
19254;DHT22;9761;50.926;5.330;2022-10-26T09:53:10;18.40;99.90
19254;DHT22;9761;50.926;5.330;2022-10-26T09:55:41;18.40;99.90
19254;DHT22;9761;50.926;5.330;2022-10-26T09:58:14;18.40;99.90
19254;DHT22;9761;50.926;5.330;2022-10-26T10:00:44;18.50;99.90
19254;DHT22;9761;50.926;5.330;2022-10-26T10:03:20;18.50;99.90
19254;DHT22;9761;50.926;5.330;2022-10-26T10:05:47;18.50;99.90
19254;DHT22;9761;50.926;5.330;2022-10-26T10:08:17;18.60;99.90
19254;DHT22;9761;50.926;5.330;2022-10-26T10:13:27;18.80;99.90
19254;DHT22;9761;50.926;5.330;2022-10-26T10:19:21;18.70;99.90
19254;DHT22;9761;50.926;5.330;2022-10-26T10:21:50;18.80;99.90
19254;DHT22;9761;50.926;5.330;2022-10-26T10:24:25;18.90;99.90
19254;DHT22;9761;50.926;5.330;2022-10-26T10:29:40;19.00;99.90
19254;DHT22;9761;50.926;5.330;2022-10-26T10:32:14;18.90;99.90
19254;DHT22;9761;50.926;5.330;2022-10-26T10:34:42;18.90;99.90
19254;DHT22;9761;50.926;5.330;2022-10-26T10:37:22;19.00;99.90
19254;DHT22;9761;50.926;5.330;2022-10-26T10:39:56;19.00;99.90
19254;DHT22;9761;50.926;5.330;2022-10-26T10:42:29;19.10;99.90
19254;DHT22;9761;50.926;5.330;2022-10-26T10:44:58;19.00;99.90
19254;DHT22;9761;50.926;5.330;2022-10-26T10:47:29;19.10;99.90
19254;DHT22;9761;50.926;5.330;2022-10-26T10:50:00;19.20;99.90
19254;DHT22;9761;50.926;5.330;2022-10-26T10:52:29;19.20;99.90
19254;DHT22;9761;50.926;5.330;2022-10-26T10:55:14;19.40;99.90
19254;DHT22;9761;50.926;5.330;2022-10-26T10:57:51;19.40;99.90
19254;DHT22;9761;50.926;5.330;2022-10-26T11:00:24;19.50;99.90
19254;DHT22;9761;50.926;5.330;2022-10-26T11:03:15;19.60;99.90
19254;DHT22;9761;50.926;5.330;2022-10-26T11:06:03;19.50;99.90
19254;DHT22;9761;50.926;5.330;2022-10-26T11:08:37;19.40;99.90
19254;DHT22;9761;50.926;5.330;2022-10-26T11:11:11;19.60;99.90
19254;DHT22;9761;50.926;5.330;2022-10-26T11:13:45;19.70;99.90
19254;DHT22;9761;50.926;5.330;2022-10-26T11:16:20;19.80;99.90
19254;DHT22;9761;50.926;5.330;2022-10-26T11:18:53;19.70;99.90
19254;DHT22;9761;50.926;5.330;2022-10-26T11:21:25;19.70;99.90
19254;DHT22;9761;50.926;5.330;2022-10-26T11:24:01;19.90;99.90
19254;DHT22;9761;50.926;5.330;2022-10-26T11:26:41;20.00;99.90
19254;DHT22;9761;50.926;5.330;2022-10-26T11:29:22;19.90;99.90
19254;DHT22;9761;50.926;5.330;2022-10-26T11:31:56;20.10;99.90
19254;DHT22;9761;50.926;5.330;2022-10-26T11:34:28;20.10;99.90
19254;DHT22;9761;50.926;5.330;2022-10-26T11:37:02;20.00;99.90
19254;DHT22;9761;50.926;5.330;2022-10-26T11:39:37;20.10;99.90
19254;DHT22;9761;50.926;5.330;2022-10-26T11:42:18;20.10;99.90
19254;DHT22;9761;50.926;5.330;2022-10-26T11:44:52;20.20;99.90
19254;DHT22;9761;50.926;5.330;2022-10-26T11:47:27;20.30;99.90
19254;DHT22;9761;50.926;5.330;2022-10-26T11:50:03;20.30;99.90
19254;DHT22;9761;50.926;5.330;2022-10-26T11:52:38;20.20;99.90
19254;DHT22;9761;50.926;5.330;2022-10-26T11:55:10;20.20;99.90
19254;DHT22;9761;50.926;5.330;2022-10-26T11:57:40;20.00;99.90
19254;DHT22;9761;50.926;5.330;2022-10-26T12:00:14;20.00;99.90
19254;DHT22;9761;50.926;5.330;2022-10-26T12:02:45;20.00;99.90
19254;DHT22;9761;50.926;5.330;2022-10-26T12:05:19;20.20;99.90
19254;DHT22;9761;50.926;5.330;2022-10-26T12:07:50;20.10;99.90
19254;DHT22;9761;50.926;5.330;2022-10-26T12:10:24;20.20;99.90
19254;DHT22;9761;50.926;5.330;2022-10-26T12:13:06;20.30;99.90
19254;DHT22;9761;50.926;5.330;2022-10-26T12:15:41;20.30;99.90
19254;DHT22;9761;50.926;5.330;2022-10-26T12:18:13;20.20;99.90
19254;DHT22;9761;50.926;5.330;2022-10-26T12:20:58;20.30;99.90
19254;DHT22;9761;50.926;5.330;2022-10-26T12:23:32;20.30;99.90
19254;DHT22;9761;50.926;5.330;2022-10-26T12:29:27;20.30;99.90
19254;DHT22;9761;50.926;5.330;2022-10-26T12:31:58;20.30;99.90
19254;DHT22;9761;50.926;5.330;2022-10-26T12:34:56;20.30;99.90
19254;DHT22;9761;50.926;5.330;2022-10-26T12:37:32;20.30;99.90
19254;DHT22;9761;50.926;5.330;2022-10-26T12:40:36;20.40;99.90
19254;DHT22;9761;50.926;5.330;2022-10-26T12:43:32;20.40;99.90
19254;DHT22;9761;50.926;5.330;2022-10-26T12:52:47;20.60;99.90
19254;DHT22;9761;50.926;5.330;2022-10-26T12:55:49;20.50;99.90
19254;DHT22;9761;50.926;5.330;2022-10-26T12:58:40;20.60;99.90
19254;DHT22;9761;50.926;5.330;2022-10-26T13:01:30;20.50;99.90
19254;DHT22;9761;50.926;5.330;2022-10-26T13:04:18;20.50;99.90
19254;DHT22;9761;50.926;5.330;2022-10-26T13:06:58;20.40;99.90
19254;DHT22;9761;50.926;5.330;2022-10-26T13:09:36;20.40;99.90
19254;DHT22;9761;50.926;5.330;2022-10-26T13:12:04;20.50;99.90
19254;DHT22;9761;50.926;5.330;2022-10-26T13:14:35;20.40;99.90
19254;DHT22;9761;50.926;5.330;2022-10-26T13:17:06;20.40;99.90
19254;DHT22;9761;50.926;5.330;2022-10-26T13:19:48;20.40;99.90
19254;DHT22;9761;50.926;5.330;2022-10-26T13:22:20;20.40;99.90
19254;DHT22;9761;50.926;5.330;2022-10-26T13:24:52;20.40;99.90
19254;DHT22;9761;50.926;5.330;2022-10-26T13:27:38;20.30;99.90
19254;DHT22;9761;50.926;5.330;2022-10-26T13:30:34;20.20;99.90
19254;DHT22;9761;50.926;5.330;2022-10-26T13:33:10;20.30;99.90
19254;DHT22;9761;50.926;5.330;2022-10-26T13:35:43;20.40;99.90
19254;DHT22;9761;50.926;5.330;2022-10-26T13:38:11;20.40;99.90
19254;DHT22;9761;50.926;5.330;2022-10-26T13:40:44;20.30;99.90
19254;DHT22;9761;50.926;5.330;2022-10-26T13:43:17;20.20;99.90
19254;DHT22;9761;50.926;5.330;2022-10-26T13:45:52;20.20;99.90
19254;DHT22;9761;50.926;5.330;2022-10-26T13:48:27;20.30;99.90
19254;DHT22;9761;50.926;5.330;2022-10-26T13:51:01;20.40;99.90
19254;DHT22;9761;50.926;5.330;2022-10-26T13:53:37;20.40;99.90
19254;DHT22;9761;50.926;5.330;2022-10-26T13:56:16;20.40;99.90
19254;DHT22;9761;50.926;5.330;2022-10-26T13:58:48;20.30;99.90
19254;DHT22;9761;50.926;5.330;2022-10-26T14:01:18;20.30;99.90
19254;DHT22;9761;50.926;5.330;2022-10-26T14:03:49;20.30;99.90
19254;DHT22;9761;50.926;5.330;2022-10-26T14:06:20;20.30;99.90
19254;DHT22;9761;50.926;5.330;2022-10-26T14:08:50;20.40;99.90
19254;DHT22;9761;50.926;5.330;2022-10-26T14:11:27;20.60;99.90
19254;DHT22;9761;50.926;5.330;2022-10-26T14:13:56;20.40;99.90
19254;DHT22;9761;50.926;5.330;2022-10-26T14:16:27;20.40;99.90
19254;DHT22;9761;50.926;5.330;2022-10-26T14:18:56;20.40;99.90
19254;DHT22;9761;50.926;5.330;2022-10-26T14:21:25;20.40;99.90
19254;DHT22;9761;50.926;5.330;2022-10-26T14:27:15;20.60;99.90
19254;DHT22;9761;50.926;5.330;2022-10-26T14:29:43;20.50;99.90
19254;DHT22;9761;50.926;5.330;2022-10-26T14:32:19;20.50;99.90
19254;DHT22;9761;50.926;5.330;2022-10-26T14:34:47;20.70;99.90
19254;DHT22;9761;50.926;5.330;2022-10-26T14:37:31;20.70;99.90
19254;DHT22;9761;50.926;5.330;2022-10-26T14:39:59;20.50;99.90
19254;DHT22;9761;50.926;5.330;2022-10-26T14:42:30;20.40;99.90
19254;DHT22;9761;50.926;5.330;2022-10-26T14:44:58;20.40;99.90
19254;DHT22;9761;50.926;5.330;2022-10-26T14:47:27;20.40;99.90
19254;DHT22;9761;50.926;5.330;2022-10-26T14:49:56;20.30;99.90
19254;DHT22;9761;50.926;5.330;2022-10-26T14:52:25;20.30;99.90
19254;DHT22;9761;50.926;5.330;2022-10-26T14:55:00;20.30;99.90
19254;DHT22;9761;50.926;5.330;2022-10-26T14:57:33;20.30;99.90
19254;DHT22;9761;50.926;5.330;2022-10-26T15:00:09;20.20;99.90
19254;DHT22;9761;50.926;5.330;2022-10-26T15:02:40;20.20;99.90
19254;DHT22;9761;50.926;5.330;2022-10-26T15:05:18;20.20;99.90
19254;DHT22;9761;50.926;5.330;2022-10-26T15:07:46;20.20;99.90
19254;DHT22;9761;50.926;5.330;2022-10-26T15:10:44;20.10;99.90
19254;DHT22;9761;50.926;5.330;2022-10-26T15:13:20;20.10;99.90
19254;DHT22;9761;50.926;5.330;2022-10-26T15:15:50;20.00;99.90
19254;DHT22;9761;50.926;5.330;2022-10-26T15:18:22;20.00;99.90
19254;DHT22;9761;50.926;5.330;2022-10-26T15:20:52;20.00;99.90
19254;DHT22;9761;50.926;5.330;2022-10-26T15:23:22;20.00;99.90
19254;DHT22;9761;50.926;5.330;2022-10-26T15:25:52;19.90;99.90
19254;DHT22;9761;50.926;5.330;2022-10-26T15:28:24;19.90;99.90
19254;DHT22;9761;50.926;5.330;2022-10-26T15:31:01;19.80;99.90
19254;DHT22;9761;50.926;5.330;2022-10-26T15:33:31;19.80;99.90
19254;DHT22;9761;50.926;5.330;2022-10-26T15:36:11;19.80;99.90
19254;DHT22;9761;50.926;5.330;2022-10-26T15:38:40;19.80;99.90
19254;DHT22;9761;50.926;5.330;2022-10-26T15:41:13;19.90;99.90
19254;DHT22;9761;50.926;5.330;2022-10-26T15:43:43;19.90;99.90
19254;DHT22;9761;50.926;5.330;2022-10-26T15:46:13;19.90;99.90
19254;DHT22;9761;50.926;5.330;2022-10-26T15:48:40;20.10;99.90
19254;DHT22;9761;50.926;5.330;2022-10-26T15:51:11;20.10;99.90
19254;DHT22;9761;50.926;5.330;2022-10-26T15:53:39;20.00;99.90
19254;DHT22;9761;50.926;5.330;2022-10-26T15:56:13;20.10;99.90
19254;DHT22;9761;50.926;5.330;2022-10-26T15:58:44;20.10;99.90
19254;DHT22;9761;50.926;5.330;2022-10-26T16:01:14;20.10;99.90
19254;DHT22;9761;50.926;5.330;2022-10-26T16:03:41;20.10;99.90
19254;DHT22;9761;50.926;5.330;2022-10-26T16:06:13;20.00;99.90
19254;DHT22;9761;50.926;5.330;2022-10-26T16:08:47;19.90;99.90
19254;DHT22;9761;50.926;5.330;2022-10-26T16:11:16;19.80;99.90
19254;DHT22;9761;50.926;5.330;2022-10-26T16:13:44;19.60;99.90
19254;DHT22;9761;50.926;5.330;2022-10-26T16:16:13;19.50;99.90
19254;DHT22;9761;50.926;5.330;2022-10-26T16:18:40;19.40;99.90
19254;DHT22;9761;50.926;5.330;2022-10-26T16:21:10;19.30;99.90
19254;DHT22;9761;50.926;5.330;2022-10-26T16:23:37;19.20;99.90
19254;DHT22;9761;50.926;5.330;2022-10-26T16:26:04;19.20;99.90
19254;DHT22;9761;50.926;5.330;2022-10-26T16:28:31;19.10;99.90
19254;DHT22;9761;50.926;5.330;2022-10-26T16:31:04;19.00;99.90
19254;DHT22;9761;50.926;5.330;2022-10-26T16:33:32;18.90;99.90
19254;DHT22;9761;50.926;5.330;2022-10-26T16:36:02;18.90;99.90
19254;DHT22;9761;50.926;5.330;2022-10-26T16:38:30;18.90;99.90
19254;DHT22;9761;50.926;5.330;2022-10-26T16:41:00;18.80;99.90
19254;DHT22;9761;50.926;5.330;2022-10-26T16:43:29;18.70;99.90
19254;DHT22;9761;50.926;5.330;2022-10-26T16:45:57;18.70;99.90
19254;DHT22;9761;50.926;5.330;2022-10-26T16:48:26;18.70;99.90
19254;DHT22;9761;50.926;5.330;2022-10-26T16:50:53;18.60;99.90
19254;DHT22;9761;50.926;5.330;2022-10-26T16:53:20;18.50;99.90
19254;DHT22;9761;50.926;5.330;2022-10-26T16:55:47;18.50;99.90
19254;DHT22;9761;50.926;5.330;2022-10-26T16:58:15;18.50;99.90